sensor_id;sensor_type;location;lat;lon;timestamp;P1;durP1;ratioP1;P2;durP2;ratioP2
28447;SDS011;15675;52.870;-1.416;2022-11-21T00:00:20;9.68;;;4.07;;
28447;SDS011;15675;52.870;-1.416;2022-11-21T00:02:47;12.30;;;4.53;;
28447;SDS011;15675;52.870;-1.416;2022-11-21T00:05:13;12.85;;;4.55;;
28447;SDS011;15675;52.870;-1.416;2022-11-21T00:07:38;6.97;;;4.05;;
28447;SDS011;15675;52.870;-1.416;2022-11-21T00:10:04;13.40;;;4.32;;
28447;SDS011;15675;52.870;-1.416;2022-11-21T00:12:30;13.57;;;5.05;;
28447;SDS011;15675;52.870;-1.416;2022-11-21T00:14:56;13.00;;;5.80;;
28447;SDS011;15675;52.870;-1.416;2022-11-21T00:17:22;16.88;;;5.88;;
28447;SDS011;15675;52.870;-1.416;2022-11-21T00:19:47;19.05;;;5.45;;
28447;SDS011;15675;52.870;-1.416;2022-11-21T00:22:13;17.02;;;6.13;;
28447;SDS011;15675;52.870;-1.416;2022-11-21T00:24:38;13.90;;;5.10;;
28447;SDS011;15675;52.870;-1.416;2022-11-21T00:27:04;12.43;;;4.82;;
28447;SDS011;15675;52.870;-1.416;2022-11-21T00:29:29;10.77;;;5.60;;
28447;SDS011;15675;52.870;-1.416;2022-11-21T00:31:55;13.00;;;5.35;;
28447;SDS011;15675;52.870;-1.416;2022-11-21T00:34:20;8.88;;;4.85;;
28447;SDS011;15675;52.870;-1.416;2022-11-21T00:36:46;14.70;;;5.22;;
28447;SDS011;15675;52.870;-1.416;2022-11-21T00:39:11;10.73;;;5.15;;
28447;SDS011;15675;52.870;-1.416;2022-11-21T00:41:37;17.52;;;5.68;;
28447;SDS011;15675;52.870;-1.416;2022-11-21T00:44:02;15.20;;;5.43;;
28447;SDS011;15675;52.870;-1.416;2022-11-21T00:46:28;8.82;;;5.60;;
28447;SDS011;15675;52.870;-1.416;2022-11-21T00:48:53;11.05;;;5.70;;
28447;SDS011;15675;52.870;-1.416;2022-11-21T00:51:19;18.30;;;6.03;;
28447;SDS011;15675;52.870;-1.416;2022-11-21T00:53:44;17.08;;;6.47;;
28447;SDS011;15675;52.870;-1.416;2022-11-21T00:56:10;13.98;;;5.82;;
28447;SDS011;15675;52.870;-1.416;2022-11-21T00:58:36;18.25;;;6.53;;
28447;SDS011;15675;52.870;-1.416;2022-11-21T01:01:02;20.90;;;6.78;;
28447;SDS011;15675;52.870;-1.416;2022-11-21T01:03:33;12.68;;;6.25;;
28447;SDS011;15675;52.870;-1.416;2022-11-21T01:06:03;17.58;;;6.13;;
28447;SDS011;15675;52.870;-1.416;2022-11-21T01:08:34;15.95;;;6.03;;
28447;SDS011;15675;52.870;-1.416;2022-11-21T01:11:04;15.85;;;6.15;;
28447;SDS011;15675;52.870;-1.416;2022-11-21T01:13:32;12.77;;;6.18;;
28447;SDS011;15675;52.870;-1.416;2022-11-21T01:16:09;11.93;;;6.03;;
28447;SDS011;15675;52.870;-1.416;2022-11-21T01:18:45;16.75;;;6.00;;
28447;SDS011;15675;52.870;-1.416;2022-11-21T01:21:12;22.77;;;6.38;;
28447;SDS011;15675;52.870;-1.416;2022-11-21T01:23:40;12.20;;;6.47;;
28447;SDS011;15675;52.870;-1.416;2022-11-21T01:26:08;18.67;;;6.20;;
28447;SDS011;15675;52.870;-1.416;2022-11-21T01:28:35;18.23;;;6.80;;
28447;SDS011;15675;52.870;-1.416;2022-11-21T01:31:05;15.15;;;6.55;;
28447;SDS011;15675;52.870;-1.416;2022-11-21T01:33:32;22.92;;;7.05;;
28447;SDS011;15675;52.870;-1.416;2022-11-21T01:36:05;11.73;;;6.10;;
28447;SDS011;15675;52.870;-1.416;2022-11-21T01:38:39;20.70;;;7.68;;
28447;SDS011;15675;52.870;-1.416;2022-11-21T01:41:08;21.02;;;7.05;;
28447;SDS011;15675;52.870;-1.416;2022-11-21T01:43:34;16.92;;;7.03;;
28447;SDS011;15675;52.870;-1.416;2022-11-21T01:50:54;16.65;;;7.03;;
28447;SDS011;15675;52.870;-1.416;2022-11-21T01:53:23;15.40;;;6.13;;
28447;SDS011;15675;52.870;-1.416;2022-11-21T01:55:49;12.35;;;5.88;;
28447;SDS011;15675;52.870;-1.416;2022-11-21T01:58:15;13.00;;;6.07;;
28447;SDS011;15675;52.870;-1.416;2022-11-21T02:00:42;24.38;;;6.82;;
28447;SDS011;15675;52.870;-1.416;2022-11-21T02:03:11;20.90;;;7.07;;
28447;SDS011;15675;52.870;-1.416;2022-11-21T02:05:43;13.98;;;6.55;;
28447;SDS011;15675;52.870;-1.416;2022-11-21T02:08:10;15.48;;;6.82;;
28447;SDS011;15675;52.870;-1.416;2022-11-21T02:10:40;18.25;;;7.28;;
28447;SDS011;15675;52.870;-1.416;2022-11-21T02:13:14;17.48;;;7.07;;
28447;SDS011;15675;52.870;-1.416;2022-11-21T02:15:40;19.90;;;6.40;;
28447;SDS011;15675;52.870;-1.416;2022-11-21T02:18:08;13.40;;;5.43;;
28447;SDS011;15675;52.870;-1.416;2022-11-21T02:20:34;23.73;;;7.32;;
28447;SDS011;15675;52.870;-1.416;2022-11-21T02:23:12;14.95;;;6.03;;
28447;SDS011;15675;52.870;-1.416;2022-11-21T02:25:53;16.08;;;6.40;;
28447;SDS011;15675;52.870;-1.416;2022-11-21T02:28:19;18.58;;;6.10;;
28447;SDS011;15675;52.870;-1.416;2022-11-21T02:30:47;24.88;;;7.45;;
28447;SDS011;15675;52.870;-1.416;2022-11-21T02:33:13;17.52;;;7.90;;
28447;SDS011;15675;52.870;-1.416;2022-11-21T02:35:39;13.82;;;6.20;;
28447;SDS011;15675;52.870;-1.416;2022-11-21T02:38:08;13.88;;;6.10;;
28447;SDS011;15675;52.870;-1.416;2022-11-21T02:40:57;15.77;;;6.93;;
28447;SDS011;15675;52.870;-1.416;2022-11-21T02:43:28;19.35;;;7.32;;
28447;SDS011;15675;52.870;-1.416;2022-11-21T02:46:00;17.02;;;7.50;;
28447;SDS011;15675;52.870;-1.416;2022-11-21T02:48:26;12.70;;;6.60;;
28447;SDS011;15675;52.870;-1.416;2022-11-21T02:50:51;16.00;;;7.55;;
28447;SDS011;15675;52.870;-1.416;2022-11-21T02:53:17;19.20;;;6.50;;
28447;SDS011;15675;52.870;-1.416;2022-11-21T02:55:43;16.92;;;6.35;;
28447;SDS011;15675;52.870;-1.416;2022-11-21T02:58:09;8.77;;;5.63;;
28447;SDS011;15675;52.870;-1.416;2022-11-21T03:00:36;18.10;;;6.70;;
28447;SDS011;15675;52.870;-1.416;2022-11-21T03:03:03;17.73;;;7.05;;
28447;SDS011;15675;52.870;-1.416;2022-11-21T03:05:28;22.20;;;7.40;;
28447;SDS011;15675;52.870;-1.416;2022-11-21T03:07:54;19.05;;;7.88;;
28447;SDS011;15675;52.870;-1.416;2022-11-21T03:10:20;15.63;;;7.25;;
28447;SDS011;15675;52.870;-1.416;2022-11-21T03:12:46;17.02;;;7.95;;
28447;SDS011;15675;52.870;-1.416;2022-11-21T03:15:12;15.55;;;8.18;;
28447;SDS011;15675;52.870;-1.416;2022-11-21T03:17:39;18.77;;;9.13;;
28447;SDS011;15675;52.870;-1.416;2022-11-21T03:20:05;23.58;;;7.97;;
28447;SDS011;15675;52.870;-1.416;2022-11-21T03:22:32;54.35;;;10.02;;
28447;SDS011;15675;52.870;-1.416;2022-11-21T03:24:57;155.23;;;11.85;;
28447;SDS011;15675;52.870;-1.416;2022-11-21T03:27:23;208.00;;;13.35;;
28447;SDS011;15675;52.870;-1.416;2022-11-21T03:29:48;113.75;;;11.18;;
28447;SDS011;15675;52.870;-1.416;2022-11-21T03:32:14;189.43;;;13.82;;
28447;SDS011;15675;52.870;-1.416;2022-11-21T03:34:40;54.90;;;9.63;;
28447;SDS011;15675;52.870;-1.416;2022-11-21T03:37:06;24.15;;;8.95;;
28447;SDS011;15675;52.870;-1.416;2022-11-21T03:39:31;101.32;;;11.55;;
28447;SDS011;15675;52.870;-1.416;2022-11-21T03:41:57;43.40;;;11.07;;
28447;SDS011;15675;52.870;-1.416;2022-11-21T03:44:23;64.50;;;10.90;;
28447;SDS011;15675;52.870;-1.416;2022-11-21T03:46:48;31.30;;;9.60;;
28447;SDS011;15675;52.870;-1.416;2022-11-21T03:49:14;137.15;;;10.80;;
28447;SDS011;15675;52.870;-1.416;2022-11-21T03:51:41;68.38;;;9.52;;
28447;SDS011;15675;52.870;-1.416;2022-11-21T03:54:07;38.05;;;8.57;;
28447;SDS011;15675;52.870;-1.416;2022-11-21T03:56:33;49.67;;;9.75;;
28447;SDS011;15675;52.870;-1.416;2022-11-21T03:58:59;18.15;;;8.45;;
28447;SDS011;15675;52.870;-1.416;2022-11-21T04:01:26;19.33;;;9.20;;
28447;SDS011;15675;52.870;-1.416;2022-11-21T04:03:52;22.13;;;7.68;;
28447;SDS011;15675;52.870;-1.416;2022-11-21T04:06:18;22.35;;;8.27;;
28447;SDS011;15675;52.870;-1.416;2022-11-21T04:08:45;123.97;;;11.38;;
28447;SDS011;15675;52.870;-1.416;2022-11-21T04:11:11;95.38;;;9.80;;
28447;SDS011;15675;52.870;-1.416;2022-11-21T04:13:37;21.75;;;8.35;;
28447;SDS011;15675;52.870;-1.416;2022-11-21T04:16:03;33.33;;;9.02;;
28447;SDS011;15675;52.870;-1.416;2022-11-21T04:18:29;32.95;;;9.77;;
28447;SDS011;15675;52.870;-1.416;2022-11-21T04:20:56;38.80;;;9.32;;
28447;SDS011;15675;52.870;-1.416;2022-11-21T04:23:25;39.78;;;9.60;;
28447;SDS011;15675;52.870;-1.416;2022-11-21T04:25:51;35.60;;;9.60;;
28447;SDS011;15675;52.870;-1.416;2022-11-21T04:28:18;116.07;;;12.85;;
28447;SDS011;15675;52.870;-1.416;2022-11-21T04:30:43;153.70;;;11.52;;
28447;SDS011;15675;52.870;-1.416;2022-11-21T04:33:12;41.78;;;8.77;;
28447;SDS011;15675;52.870;-1.416;2022-11-21T04:35:39;88.82;;;10.90;;
28447;SDS011;15675;52.870;-1.416;2022-11-21T04:38:06;165.48;;;12.65;;
28447;SDS011;15675;52.870;-1.416;2022-11-21T04:40:31;184.80;;;14.25;;
28447;SDS011;15675;52.870;-1.416;2022-11-21T04:42:57;138.30;;;10.50;;
28447;SDS011;15675;52.870;-1.416;2022-11-21T04:45:22;91.10;;;10.68;;
28447;SDS011;15675;52.870;-1.416;2022-11-21T04:47:48;80.60;;;10.32;;
28447;SDS011;15675;52.870;-1.416;2022-11-21T04:50:15;112.35;;;11.88;;
28447;SDS011;15675;52.870;-1.416;2022-11-21T04:52:42;86.60;;;8.15;;
28447;SDS011;15675;52.870;-1.416;2022-11-21T04:55:14;47.28;;;9.68;;
28447;SDS011;15675;52.870;-1.416;2022-11-21T04:57:39;95.03;;;10.77;;
28447;SDS011;15675;52.870;-1.416;2022-11-21T05:00:05;183.77;;;13.95;;
28447;SDS011;15675;52.870;-1.416;2022-11-21T05:02:31;85.25;;;11.25;;
28447;SDS011;15675;52.870;-1.416;2022-11-21T05:04:57;104.28;;;13.40;;
28447;SDS011;15675;52.870;-1.416;2022-11-21T05:07:23;75.90;;;12.00;;
28447;SDS011;15675;52.870;-1.416;2022-11-21T05:09:48;106.30;;;12.90;;
28447;SDS011;15675;52.870;-1.416;2022-11-21T05:12:14;66.45;;;10.75;;
28447;SDS011;15675;52.870;-1.416;2022-11-21T05:14:58;124.00;;;12.68;;
28447;SDS011;15675;52.870;-1.416;2022-11-21T05:17:23;41.60;;;10.30;;
28447;SDS011;15675;52.870;-1.416;2022-11-21T05:19:49;164.70;;;14.45;;
28447;SDS011;15675;52.870;-1.416;2022-11-21T05:22:14;138.05;;;13.27;;
28447;SDS011;15675;52.870;-1.416;2022-11-21T05:24:40;114.68;;;12.23;;
28447;SDS011;15675;52.870;-1.416;2022-11-21T05:27:05;166.77;;;13.68;;
28447;SDS011;15675;52.870;-1.416;2022-11-21T05:29:31;96.00;;;10.70;;
28447;SDS011;15675;52.870;-1.416;2022-11-21T05:31:56;41.78;;;11.23;;
28447;SDS011;15675;52.870;-1.416;2022-11-21T05:34:22;93.40;;;10.85;;
28447;SDS011;15675;52.870;-1.416;2022-11-21T05:36:47;143.07;;;13.30;;
28447;SDS011;15675;52.870;-1.416;2022-11-21T05:39:14;75.93;;;10.65;;
28447;SDS011;15675;52.870;-1.416;2022-11-21T05:41:40;38.08;;;10.43;;
28447;SDS011;15675;52.870;-1.416;2022-11-21T05:44:06;25.38;;;10.15;;
28447;SDS011;15675;52.870;-1.416;2022-11-21T05:46:32;32.90;;;9.65;;
28447;SDS011;15675;52.870;-1.416;2022-11-21T05:48:57;22.80;;;8.88;;
28447;SDS011;15675;52.870;-1.416;2022-11-21T05:51:23;25.20;;;9.45;;
28447;SDS011;15675;52.870;-1.416;2022-11-21T05:53:48;25.50;;;9.15;;
28447;SDS011;15675;52.870;-1.416;2022-11-21T05:56:15;32.15;;;8.82;;
28447;SDS011;15675;52.870;-1.416;2022-11-21T05:58:42;23.88;;;8.80;;
28447;SDS011;15675;52.870;-1.416;2022-11-21T06:01:09;24.77;;;8.23;;
28447;SDS011;15675;52.870;-1.416;2022-11-21T06:03:36;26.63;;;8.63;;
28447;SDS011;15675;52.870;-1.416;2022-11-21T06:08:33;38.85;;;9.45;;
28447;SDS011;15675;52.870;-1.416;2022-11-21T06:11:02;29.52;;;10.38;;
28447;SDS011;15675;52.870;-1.416;2022-11-21T06:13:30;27.10;;;10.35;;
28447;SDS011;15675;52.870;-1.416;2022-11-21T06:16:02;22.45;;;9.70;;
28447;SDS011;15675;52.870;-1.416;2022-11-21T06:18:33;21.92;;;8.63;;
28447;SDS011;15675;52.870;-1.416;2022-11-21T06:21:04;20.02;;;9.38;;
28447;SDS011;15675;52.870;-1.416;2022-11-21T06:23:35;28.75;;;9.43;;
28447;SDS011;15675;52.870;-1.416;2022-11-21T06:26:02;28.92;;;9.50;;
28447;SDS011;15675;52.870;-1.416;2022-11-21T06:28:30;28.15;;;9.20;;
28447;SDS011;15675;52.870;-1.416;2022-11-21T06:31:03;19.48;;;8.82;;
28447;SDS011;15675;52.870;-1.416;2022-11-21T06:33:33;26.67;;;8.70;;
28447;SDS011;15675;52.870;-1.416;2022-11-21T06:36:06;22.02;;;9.90;;
28447;SDS011;15675;52.870;-1.416;2022-11-21T06:38:39;38.25;;;10.07;;
28447;SDS011;15675;52.870;-1.416;2022-11-21T06:41:12;24.17;;;8.75;;
28447;SDS011;15675;52.870;-1.416;2022-11-21T06:43:39;25.75;;;8.18;;
28447;SDS011;15675;52.870;-1.416;2022-11-21T06:46:05;27.33;;;7.88;;
28447;SDS011;15675;52.870;-1.416;2022-11-21T06:48:32;20.48;;;7.63;;
28447;SDS011;15675;52.870;-1.416;2022-11-21T06:53:52;22.02;;;6.93;;
28447;SDS011;15675;52.870;-1.416;2022-11-21T06:56:20;26.15;;;6.45;;
28447;SDS011;15675;52.870;-1.416;2022-11-21T06:58:45;22.77;;;7.03;;
28447;SDS011;15675;52.870;-1.416;2022-11-21T07:01:11;33.10;;;8.07;;
28447;SDS011;15675;52.870;-1.416;2022-11-21T07:03:37;20.02;;;7.60;;
28447;SDS011;15675;52.870;-1.416;2022-11-21T07:06:03;20.13;;;7.00;;
28447;SDS011;15675;52.870;-1.416;2022-11-21T07:08:30;21.15;;;7.05;;
28447;SDS011;15675;52.870;-1.416;2022-11-21T07:11:05;19.88;;;6.38;;
28447;SDS011;15675;52.870;-1.416;2022-11-21T07:13:32;24.02;;;6.65;;
28447;SDS011;15675;52.870;-1.416;2022-11-21T07:16:05;18.25;;;7.05;;
28447;SDS011;15675;52.870;-1.416;2022-11-21T07:18:32;24.30;;;7.15;;
28447;SDS011;15675;52.870;-1.416;2022-11-21T07:20:59;18.30;;;7.50;;
28447;SDS011;15675;52.870;-1.416;2022-11-21T07:23:25;21.83;;;7.60;;
28447;SDS011;15675;52.870;-1.416;2022-11-21T07:25:51;17.65;;;7.22;;
28447;SDS011;15675;52.870;-1.416;2022-11-21T07:28:17;23.23;;;6.95;;
28447;SDS011;15675;52.870;-1.416;2022-11-21T07:30:42;21.20;;;6.90;;
28447;SDS011;15675;52.870;-1.416;2022-11-21T07:33:08;25.10;;;7.50;;
28447;SDS011;15675;52.870;-1.416;2022-11-21T07:35:33;16.38;;;6.28;;
28447;SDS011;15675;52.870;-1.416;2022-11-21T07:38:00;30.10;;;6.60;;
28447;SDS011;15675;52.870;-1.416;2022-11-21T07:40:26;17.50;;;6.40;;
28447;SDS011;15675;52.870;-1.416;2022-11-21T07:42:52;25.38;;;7.22;;
28447;SDS011;15675;52.870;-1.416;2022-11-21T07:45:18;27.95;;;6.95;;
28447;SDS011;15675;52.870;-1.416;2022-11-21T07:47:44;27.23;;;7.07;;
28447;SDS011;15675;52.870;-1.416;2022-11-21T07:50:10;22.95;;;6.28;;
28447;SDS011;15675;52.870;-1.416;2022-11-21T07:52:36;27.10;;;6.25;;
28447;SDS011;15675;52.870;-1.416;2022-11-21T07:55:03;15.63;;;4.93;;
28447;SDS011;15675;52.870;-1.416;2022-11-21T07:57:30;18.88;;;5.00;;
28447;SDS011;15675;52.870;-1.416;2022-11-21T07:59:56;19.50;;;4.70;;
28447;SDS011;15675;52.870;-1.416;2022-11-21T08:02:23;18.80;;;4.55;;
28447;SDS011;15675;52.870;-1.416;2022-11-21T08:04:49;21.52;;;4.90;;
28447;SDS011;15675;52.870;-1.416;2022-11-21T08:07:16;22.00;;;4.88;;
28447;SDS011;15675;52.870;-1.416;2022-11-21T08:09:43;22.77;;;4.95;;
28447;SDS011;15675;52.870;-1.416;2022-11-21T08:12:09;21.08;;;5.13;;
28447;SDS011;15675;52.870;-1.416;2022-11-21T08:14:36;25.67;;;5.05;;
28447;SDS011;15675;52.870;-1.416;2022-11-21T08:17:02;23.83;;;5.25;;
28447;SDS011;15675;52.870;-1.416;2022-11-21T08:19:28;25.10;;;4.78;;
28447;SDS011;15675;52.870;-1.416;2022-11-21T08:21:54;17.30;;;5.78;;
28447;SDS011;15675;52.870;-1.416;2022-11-21T08:24:20;15.73;;;4.93;;
28447;SDS011;15675;52.870;-1.416;2022-11-21T08:26:45;17.85;;;4.53;;
28447;SDS011;15675;52.870;-1.416;2022-11-21T08:29:11;15.02;;;4.22;;
28447;SDS011;15675;52.870;-1.416;2022-11-21T08:31:39;20.05;;;5.18;;
28447;SDS011;15675;52.870;-1.416;2022-11-21T08:34:05;18.88;;;4.68;;
28447;SDS011;15675;52.870;-1.416;2022-11-21T08:36:32;26.23;;;5.68;;
28447;SDS011;15675;52.870;-1.416;2022-11-21T08:38:58;15.52;;;4.20;;
28447;SDS011;15675;52.870;-1.416;2022-11-21T08:41:23;21.80;;;4.78;;
28447;SDS011;15675;52.870;-1.416;2022-11-21T08:44:08;20.40;;;4.82;;
28447;SDS011;15675;52.870;-1.416;2022-11-21T08:46:33;18.02;;;3.97;;
28447;SDS011;15675;52.870;-1.416;2022-11-21T08:49:02;16.85;;;4.35;;
28447;SDS011;15675;52.870;-1.416;2022-11-21T08:51:28;17.38;;;4.35;;
28447;SDS011;15675;52.870;-1.416;2022-11-21T08:53:54;15.63;;;4.30;;
28447;SDS011;15675;52.870;-1.416;2022-11-21T08:56:19;12.07;;;3.85;;
28447;SDS011;15675;52.870;-1.416;2022-11-21T08:58:45;11.15;;;3.65;;
28447;SDS011;15675;52.870;-1.416;2022-11-21T09:01:10;22.77;;;5.25;;
28447;SDS011;15675;52.870;-1.416;2022-11-21T09:03:36;20.75;;;4.78;;
28447;SDS011;15675;52.870;-1.416;2022-11-21T09:06:02;17.33;;;4.32;;
28447;SDS011;15675;52.870;-1.416;2022-11-21T09:08:27;24.08;;;3.80;;
28447;SDS011;15675;52.870;-1.416;2022-11-21T09:10:53;17.73;;;4.03;;
28447;SDS011;15675;52.870;-1.416;2022-11-21T09:13:19;11.50;;;4.00;;
28447;SDS011;15675;52.870;-1.416;2022-11-21T09:15:44;19.00;;;4.05;;
28447;SDS011;15675;52.870;-1.416;2022-11-21T09:18:28;16.30;;;4.07;;
28447;SDS011;15675;52.870;-1.416;2022-11-21T09:20:54;19.02;;;4.25;;
28447;SDS011;15675;52.870;-1.416;2022-11-21T09:23:19;21.13;;;4.40;;
28447;SDS011;15675;52.870;-1.416;2022-11-21T09:25:45;22.63;;;4.20;;
28447;SDS011;15675;52.870;-1.416;2022-11-21T09:28:11;21.13;;;4.32;;
28447;SDS011;15675;52.870;-1.416;2022-11-21T09:30:37;13.85;;;4.07;;
28447;SDS011;15675;52.870;-1.416;2022-11-21T09:33:04;18.73;;;4.03;;
28447;SDS011;15675;52.870;-1.416;2022-11-21T09:35:32;13.25;;;3.85;;
28447;SDS011;15675;52.870;-1.416;2022-11-21T09:37:57;13.07;;;4.07;;
28447;SDS011;15675;52.870;-1.416;2022-11-21T09:40:23;22.50;;;3.60;;
28447;SDS011;15675;52.870;-1.416;2022-11-21T09:45:40;12.02;;;3.13;;
28447;SDS011;15675;52.870;-1.416;2022-11-21T09:48:12;20.45;;;2.47;;
28447;SDS011;15675;52.870;-1.416;2022-11-21T09:50:43;10.90;;;2.17;;
28447;SDS011;15675;52.870;-1.416;2022-11-21T09:53:22;9.65;;;2.33;;
28447;SDS011;15675;52.870;-1.416;2022-11-21T09:56:09;19.58;;;2.80;;
28447;SDS011;15675;52.870;-1.416;2022-11-21T09:58:41;10.15;;;2.13;;
28447;SDS011;15675;52.870;-1.416;2022-11-21T10:01:13;11.80;;;3.08;;
28447;SDS011;15675;52.870;-1.416;2022-11-21T10:03:44;13.45;;;2.42;;
28447;SDS011;15675;52.870;-1.416;2022-11-21T10:11:30;10.98;;;1.63;;
28447;SDS011;15675;52.870;-1.416;2022-11-21T10:14:45;11.10;;;3.45;;
28447;SDS011;15675;52.870;-1.416;2022-11-21T10:17:30;11.65;;;2.30;;
28447;SDS011;15675;52.870;-1.416;2022-11-21T10:20:03;9.50;;;2.15;;
28447;SDS011;15675;52.870;-1.416;2022-11-21T10:25:07;16.02;;;2.67;;
28447;SDS011;15675;52.870;-1.416;2022-11-21T10:30:16;10.95;;;2.38;;
28447;SDS011;15675;52.870;-1.416;2022-11-21T10:32:45;12.25;;;2.30;;
28447;SDS011;15675;52.870;-1.416;2022-11-21T10:35:16;12.45;;;2.78;;
28447;SDS011;15675;52.870;-1.416;2022-11-21T10:38:09;9.48;;;2.80;;
28447;SDS011;15675;52.870;-1.416;2022-11-21T10:46:06;13.85;;;3.08;;
28447;SDS011;15675;52.870;-1.416;2022-11-21T10:48:32;15.43;;;3.08;;
28447;SDS011;15675;52.870;-1.416;2022-11-21T10:53:57;13.23;;;2.63;;
28447;SDS011;15675;52.870;-1.416;2022-11-21T10:56:46;14.35;;;2.60;;
28447;SDS011;15675;52.870;-1.416;2022-11-21T10:59:16;13.95;;;2.58;;
28447;SDS011;15675;52.870;-1.416;2022-11-21T11:04:25;13.15;;;2.65;;
28447;SDS011;15675;52.870;-1.416;2022-11-21T11:06:51;12.00;;;2.60;;
28447;SDS011;15675;52.870;-1.416;2022-11-21T11:09:21;13.93;;;2.78;;
28447;SDS011;15675;52.870;-1.416;2022-11-21T11:11:48;19.52;;;3.47;;
28447;SDS011;15675;52.870;-1.416;2022-11-21T11:14:14;16.75;;;3.38;;
28447;SDS011;15675;52.870;-1.416;2022-11-21T11:16:43;15.93;;;2.33;;
28447;SDS011;15675;52.870;-1.416;2022-11-21T11:26:33;18.52;;;3.15;;
28447;SDS011;15675;52.870;-1.416;2022-11-21T11:29:12;15.25;;;2.80;;
28447;SDS011;15675;52.870;-1.416;2022-11-21T11:37:12;14.60;;;3.35;;
28447;SDS011;15675;52.870;-1.416;2022-11-21T11:42:23;11.20;;;2.67;;
28447;SDS011;15675;52.870;-1.416;2022-11-21T11:45:40;13.70;;;3.25;;
28447;SDS011;15675;52.870;-1.416;2022-11-21T11:48:26;13.43;;;3.67;;
28447;SDS011;15675;52.870;-1.416;2022-11-21T11:50:59;18.15;;;3.03;;
28447;SDS011;15675;52.870;-1.416;2022-11-21T11:58:58;17.35;;;3.03;;
28447;SDS011;15675;52.870;-1.416;2022-11-21T12:04:44;19.30;;;3.22;;
28447;SDS011;15675;52.870;-1.416;2022-11-21T12:10:26;20.35;;;3.25;;
28447;SDS011;15675;52.870;-1.416;2022-11-21T12:13:03;23.10;;;3.35;;
28447;SDS011;15675;52.870;-1.416;2022-11-21T12:15:39;22.23;;;3.38;;
28447;SDS011;15675;52.870;-1.416;2022-11-21T12:23:27;31.17;;;4.22;;
28447;SDS011;15675;52.870;-1.416;2022-11-21T12:31:12;33.78;;;9.88;;
28447;SDS011;15675;52.870;-1.416;2022-11-21T12:45:28;22.00;;;4.03;;
28447;SDS011;15675;52.870;-1.416;2022-11-21T12:56:56;21.33;;;4.07;;
28447;SDS011;15675;52.870;-1.416;2022-11-21T12:59:23;23.67;;;4.18;;
28447;SDS011;15675;52.870;-1.416;2022-11-21T13:04:52;22.90;;;4.45;;
28447;SDS011;15675;52.870;-1.416;2022-11-21T13:07:21;20.98;;;4.35;;
28447;SDS011;15675;52.870;-1.416;2022-11-21T13:09:49;13.60;;;4.30;;
28447;SDS011;15675;52.870;-1.416;2022-11-21T13:12:21;15.98;;;4.70;;
28447;SDS011;15675;52.870;-1.416;2022-11-21T13:23:32;14.02;;;3.65;;
28447;SDS011;15675;52.870;-1.416;2022-11-21T13:28:51;13.63;;;3.55;;
28447;SDS011;15675;52.870;-1.416;2022-11-21T13:31:34;20.65;;;4.25;;
28447;SDS011;15675;52.870;-1.416;2022-11-21T13:34:01;24.10;;;4.88;;
28447;SDS011;15675;52.870;-1.416;2022-11-21T13:46:56;24.15;;;4.15;;
28447;SDS011;15675;52.870;-1.416;2022-11-21T13:52:26;13.02;;;3.55;;
28447;SDS011;15675;52.870;-1.416;2022-11-21T14:08:25;15.13;;;4.22;;
28447;SDS011;15675;52.870;-1.416;2022-11-21T14:10:53;16.23;;;4.55;;
28447;SDS011;15675;52.870;-1.416;2022-11-21T14:13:27;18.20;;;3.40;;
28447;SDS011;15675;52.870;-1.416;2022-11-21T14:21:14;16.88;;;3.38;;
28447;SDS011;15675;52.870;-1.416;2022-11-21T14:23:44;16.83;;;3.45;;
28447;SDS011;15675;52.870;-1.416;2022-11-21T14:26:10;18.48;;;4.13;;
28447;SDS011;15675;52.870;-1.416;2022-11-21T14:28:39;11.50;;;3.13;;
28447;SDS011;15675;52.870;-1.416;2022-11-21T14:33:34;13.80;;;3.83;;
28447;SDS011;15675;52.870;-1.416;2022-11-21T14:46:44;24.40;;;4.63;;
28447;SDS011;15675;52.870;-1.416;2022-11-21T14:51:41;21.00;;;4.82;;
28447;SDS011;15675;52.870;-1.416;2022-11-21T14:54:38;16.67;;;3.38;;
28447;SDS011;15675;52.870;-1.416;2022-11-21T14:57:13;31.42;;;9.00;;
28447;SDS011;15675;52.870;-1.416;2022-11-21T14:59:44;30.58;;;8.07;;
28447;SDS011;15675;52.870;-1.416;2022-11-21T15:02:17;24.23;;;6.97;;
28447;SDS011;15675;52.870;-1.416;2022-11-21T15:04:46;21.13;;;6.03;;
28447;SDS011;15675;52.870;-1.416;2022-11-21T15:07:20;21.08;;;6.25;;
28447;SDS011;15675;52.870;-1.416;2022-11-21T15:09:50;25.20;;;7.88;;
28447;SDS011;15675;52.870;-1.416;2022-11-21T15:12:24;15.88;;;4.53;;
28447;SDS011;15675;52.870;-1.416;2022-11-21T15:17:28;9.57;;;4.15;;
28447;SDS011;15675;52.870;-1.416;2022-11-21T15:20:15;18.98;;;4.38;;
28447;SDS011;15675;52.870;-1.416;2022-11-21T15:22:44;19.05;;;5.07;;
28447;SDS011;15675;52.870;-1.416;2022-11-21T15:25:21;15.27;;;3.78;;
28447;SDS011;15675;52.870;-1.416;2022-11-21T15:30:30;27.15;;;6.53;;
28447;SDS011;15675;52.870;-1.416;2022-11-21T15:33:07;14.10;;;5.13;;
28447;SDS011;15675;52.870;-1.416;2022-11-21T15:41:03;21.25;;;5.35;;
28447;SDS011;15675;52.870;-1.416;2022-11-21T15:43:32;17.92;;;4.13;;
28447;SDS011;15675;52.870;-1.416;2022-11-21T15:46:02;16.25;;;4.65;;
28447;SDS011;15675;52.870;-1.416;2022-11-21T15:48:28;15.18;;;4.20;;
28447;SDS011;15675;52.870;-1.416;2022-11-21T15:50:55;18.80;;;4.50;;
28447;SDS011;15675;52.870;-1.416;2022-11-21T15:53:21;18.83;;;3.47;;
28447;SDS011;15675;52.870;-1.416;2022-11-21T15:55:46;14.75;;;4.43;;
28447;SDS011;15675;52.870;-1.416;2022-11-21T15:58:12;20.20;;;3.63;;
28447;SDS011;15675;52.870;-1.416;2022-11-21T16:00:37;20.85;;;3.85;;
28447;SDS011;15675;52.870;-1.416;2022-11-21T16:03:03;19.38;;;4.47;;
28447;SDS011;15675;52.870;-1.416;2022-11-21T16:05:28;20.20;;;3.28;;
28447;SDS011;15675;52.870;-1.416;2022-11-21T16:07:54;10.52;;;3.88;;
28447;SDS011;15675;52.870;-1.416;2022-11-21T16:10:19;9.05;;;3.40;;
28447;SDS011;15675;52.870;-1.416;2022-11-21T16:12:46;11.80;;;3.30;;
28447;SDS011;15675;52.870;-1.416;2022-11-21T16:15:11;16.92;;;3.55;;
28447;SDS011;15675;52.870;-1.416;2022-11-21T16:17:37;11.25;;;3.58;;
28447;SDS011;15675;52.870;-1.416;2022-11-21T16:20:04;15.40;;;3.90;;
28447;SDS011;15675;52.870;-1.416;2022-11-21T16:22:30;12.07;;;2.67;;
28447;SDS011;15675;52.870;-1.416;2022-11-21T16:24:56;7.50;;;2.00;;
28447;SDS011;15675;52.870;-1.416;2022-11-21T16:27:21;11.95;;;2.72;;
28447;SDS011;15675;52.870;-1.416;2022-11-21T16:29:47;6.90;;;2.78;;
28447;SDS011;15675;52.870;-1.416;2022-11-21T16:32:12;20.08;;;3.33;;
28447;SDS011;15675;52.870;-1.416;2022-11-21T16:34:38;11.15;;;3.45;;
28447;SDS011;15675;52.870;-1.416;2022-11-21T16:37:03;12.13;;;2.97;;
28447;SDS011;15675;52.870;-1.416;2022-11-21T16:39:29;12.70;;;2.97;;
28447;SDS011;15675;52.870;-1.416;2022-11-21T16:41:54;9.93;;;3.28;;
28447;SDS011;15675;52.870;-1.416;2022-11-21T16:44:20;11.15;;;3.08;;
28447;SDS011;15675;52.870;-1.416;2022-11-21T16:46:45;13.70;;;3.08;;
28447;SDS011;15675;52.870;-1.416;2022-11-21T16:49:13;10.10;;;3.17;;
28447;SDS011;15675;52.870;-1.416;2022-11-21T16:51:39;9.32;;;3.63;;
28447;SDS011;15675;52.870;-1.416;2022-11-21T16:54:04;13.90;;;3.75;;
28447;SDS011;15675;52.870;-1.416;2022-11-21T16:56:30;16.45;;;3.50;;
28447;SDS011;15675;52.870;-1.416;2022-11-21T16:58:55;14.30;;;3.15;;
28447;SDS011;15675;52.870;-1.416;2022-11-21T17:01:21;19.10;;;2.90;;
28447;SDS011;15675;52.870;-1.416;2022-11-21T17:03:49;9.73;;;2.78;;
28447;SDS011;15675;52.870;-1.416;2022-11-21T17:06:16;15.10;;;3.40;;
28447;SDS011;15675;52.870;-1.416;2022-11-21T17:08:43;15.93;;;3.30;;
28447;SDS011;15675;52.870;-1.416;2022-11-21T17:11:30;14.38;;;2.83;;
28447;SDS011;15675;52.870;-1.416;2022-11-21T17:13:57;9.90;;;2.67;;